createdAt,value
2022-09-04T00:01:59.654Z,85.23
2022-09-04T00:04:36.664Z,85.49
2022-09-04T00:07:19.181Z,85.25
2022-09-04T00:09:58.237Z,84.70
2022-09-04T00:12:34.424Z,85.50
2022-09-04T00:15:08.909Z,85.11
2022-09-04T00:17:45.736Z,85.56
2022-09-04T00:20:27.433Z,85.21
2022-09-04T00:23:03.972Z,85.55
2022-09-04T00:25:41.837Z,85.45
2022-09-04T00:28:18.418Z,86.42
2022-09-04T00:30:54.941Z,92.53
2022-09-04T00:33:31.558Z,93.66
2022-09-04T00:36:03.557Z,91.85
2022-09-04T00:38:42.199Z,90.34
2022-09-04T00:41:19.951Z,88.26
2022-09-04T00:44:18.817Z,87.68
2022-09-04T00:47:03.570Z,89.30
2022-09-04T00:49:57.864Z,88.52
2022-09-04T00:52:42.661Z,87.85
2022-09-04T00:55:28.803Z,86.76
2022-09-04T00:58:10.988Z,85.91
2022-09-04T01:00:40.329Z,85.58
2022-09-04T01:03:36.279Z,85.91
2022-09-04T01:06:35.445Z,85.93
2022-09-04T01:09:38.945Z,85.98
2022-09-04T01:12:20.766Z,88.31
2022-09-04T01:14:55.979Z,88.64
2022-09-04T01:17:33.012Z,88.34
2022-09-04T01:20:15.589Z,88.30
2022-09-04T01:23:00.264Z,87.01
2022-09-04T01:25:51.873Z,86.73
2022-09-04T01:28:29.121Z,86.41
2022-09-04T01:31:06.768Z,87.86
2022-09-04T01:33:42.597Z,87.27
2022-09-04T01:36:19.970Z,91.69
2022-09-04T01:38:53.314Z,90.38
2022-09-04T01:41:33.956Z,89.05
2022-09-04T01:44:09.323Z,87.79
2022-09-04T01:46:50.087Z,87.47
2022-09-04T01:49:28.793Z,88.08
2022-09-04T01:52:06.963Z,88.57
2022-09-04T01:54:50.314Z,88.82
2022-09-04T01:57:31.088Z,87.03
2022-09-04T02:00:07.734Z,86.64
2022-09-04T02:02:50.379Z,86.51
2022-09-04T02:05:27.745Z,85.76
2022-09-04T02:08:12.619Z,85.61
2022-09-04T02:10:50.196Z,84.73
2022-09-04T02:13:24.142Z,84.96
2022-09-04T02:16:06.029Z,85.46
2022-09-04T02:18:45.631Z,85.41
2022-09-04T02:21:26.214Z,86.81
2022-09-04T02:24:04.829Z,85.71
2022-09-04T02:26:38.606Z,84.79
2022-09-04T02:29:16.353Z,84.52
2022-09-04T02:31:55.308Z,84.61
2022-09-04T02:34:33.877Z,85.46
2022-09-04T02:37:10.512Z,89.15
2022-09-04T02:39:52.620Z,90.89
2022-09-04T02:42:31.235Z,90.53
2022-09-04T02:45:14.198Z,88.75
2022-09-04T02:47:48.168Z,87.24
2022-09-04T02:50:30.076Z,87.00
2022-09-04T02:53:08.565Z,87.54
2022-09-04T02:56:09.505Z,88.62
2022-09-04T02:58:52.043Z,88.00
2022-09-04T03:01:29.849Z,86.90
2022-09-04T03:04:04.994Z,85.76
2022-09-04T03:06:48.690Z,85.70
2022-09-04T03:09:22.733Z,84.17
2022-09-04T03:11:58.853Z,87.55
2022-09-04T03:14:34.535Z,89.43
2022-09-04T03:17:10.983Z,87.52
2022-09-04T03:19:48.644Z,86.17
2022-09-04T03:22:22.992Z,85.29
2022-09-04T03:25:10.803Z,86.21
2022-09-04T03:27:39.102Z,87.60
2022-09-04T03:30:09.653Z,88.54
2022-09-04T03:32:52.412Z,90.20
2022-09-04T03:35:30.405Z,90.57
2022-09-04T03:38:09.240Z,90.84
2022-09-04T03:40:41.710Z,90.94
2022-09-04T03:43:23.019Z,90.09
2022-09-04T03:45:57.682Z,88.14
2022-09-04T03:48:41.232Z,87.27
2022-09-04T03:51:24.371Z,87.14
2022-09-04T03:54:02.437Z,91.00
2022-09-04T03:56:47.758Z,91.53
2022-09-04T03:59:29.064Z,93.76
2022-09-04T04:02:06.545Z,95.08
2022-09-04T04:05:12.063Z,95.54
2022-09-04T04:07:50.867Z,97.12
2022-09-04T04:10:33.357Z,98.37
2022-09-04T04:13:19.391Z,100.00
2022-09-04T04:15:58.400Z,98.03
2022-09-04T04:18:54.169Z,95.49
2022-09-04T04:21:37.023Z,95.63
2022-09-04T04:24:30.002Z,93.84
2022-09-04T04:27:07.613Z,91.30
2022-09-04T04:29:56.854Z,90.56
2022-09-04T04:32:46.244Z,89.60
2022-09-04T04:35:27.244Z,88.35
2022-09-04T04:38:08.875Z,87.66
2022-09-04T04:40:55.867Z,87.42
2022-09-04T04:43:34.623Z,87.13
2022-09-04T04:46:12.516Z,88.10
2022-09-04T04:49:07.402Z,87.65
2022-09-04T04:51:57.880Z,86.08
2022-09-04T04:54:52.395Z,85.93
2022-09-04T04:57:33.012Z,85.81
2022-09-04T05:00:09.256Z,85.74
2022-09-04T05:02:43.653Z,86.12
2022-09-04T05:05:17.341Z,86.70
2022-09-04T05:07:56.550Z,86.40
2022-09-04T05:10:30.242Z,85.85
2022-09-04T05:13:13.029Z,85.93
2022-09-04T05:16:05.494Z,85.76
2022-09-04T05:18:42.241Z,86.09
2022-09-04T05:21:20.871Z,86.07
2022-09-04T05:23:56.008Z,85.72
2022-09-04T05:26:32.182Z,86.24
2022-09-04T05:29:07.187Z,86.05
2022-09-04T05:31:43.457Z,86.19
2022-09-04T05:34:20.753Z,85.40
2022-09-04T05:36:58.583Z,85.88
2022-09-04T05:39:31.630Z,85.98
2022-09-04T05:42:14.088Z,86.42
2022-09-04T05:44:59.005Z,87.19
2022-09-04T05:47:43.223Z,86.56
2022-09-04T05:50:37.530Z,86.46
2022-09-04T05:53:28.770Z,86.33
2022-09-04T05:56:41.240Z,86.66
2022-09-04T05:59:27.809Z,86.28
2022-09-04T06:02:31.092Z,85.84
2022-09-04T06:05:19.002Z,85.77
2022-09-04T06:07:56.183Z,86.55
2022-09-04T06:10:36.531Z,86.61
2022-09-04T06:13:32.668Z,87.78
2022-09-04T06:16:16.679Z,86.88
2022-09-04T06:19:01.347Z,87.22
2022-09-04T06:21:59.765Z,86.61
2022-09-04T06:24:56.788Z,88.10
2022-09-04T06:27:39.345Z,87.83
2022-09-04T06:30:10.319Z,87.46
2022-09-04T06:32:53.509Z,86.58
2022-09-04T06:35:52.796Z,86.24
2022-09-04T06:38:35.500Z,85.50
2022-09-04T06:41:20.009Z,83.89
2022-09-04T06:43:59.525Z,84.43
2022-09-04T06:47:00.449Z,84.25
2022-09-04T06:49:58.750Z,84.08
2022-09-04T06:52:34.718Z,84.46
2022-09-04T06:55:14.906Z,85.15
2022-09-04T06:58:00.178Z,89.33
2022-09-04T07:00:31.572Z,85.76
2022-09-04T07:03:21.819Z,84.70
2022-09-04T07:05:55.666Z,83.72
2022-09-04T07:08:38.338Z,84.03
2022-09-04T07:11:20.181Z,83.99
2022-09-04T07:14:16.999Z,82.48
2022-09-04T07:16:57.159Z,82.36
2022-09-04T07:20:08.455Z,83.13
2022-09-04T07:22:55.019Z,84.13
2022-09-04T07:25:28.329Z,83.32
2022-09-04T07:28:15.647Z,80.67
2022-09-04T07:30:47.589Z,78.96
2022-09-04T07:33:24.505Z,79.08
2022-09-04T07:36:01.031Z,78.93
2022-09-04T07:38:36.898Z,76.72
2022-09-04T07:41:14.910Z,78.01
2022-09-04T07:43:54.859Z,79.41
2022-09-04T07:46:33.588Z,79.40
2022-09-04T07:49:11.893Z,78.07
2022-09-04T07:51:46.450Z,74.89
2022-09-04T07:54:50.243Z,71.74
2022-09-04T07:57:40.258Z,70.46
2022-09-04T08:00:11.255Z,69.81
2022-09-04T08:03:16.905Z,69.91
2022-09-04T08:05:53.224Z,66.87
2022-09-04T08:08:58.366Z,69.22
2022-09-04T08:11:41.308Z,66.02
2022-09-04T08:14:33.989Z,66.38
2022-09-04T08:17:37.126Z,67.12
2022-09-04T08:20:12.682Z,63.67
2022-09-04T08:22:54.293Z,64.58
2022-09-04T08:25:28.738Z,63.85
2022-09-04T08:28:12.522Z,63.84
2022-09-04T08:30:51.975Z,61.89
2022-09-04T08:33:51.249Z,62.27
2022-09-04T08:36:29.012Z,63.28
2022-09-04T08:39:07.990Z,60.46
2022-09-04T08:42:11.356Z,59.51
2022-09-04T08:45:16.298Z,62.97
2022-09-04T08:48:20.688Z,62.91
2022-09-04T08:51:09.622Z,62.02
2022-09-04T08:54:18.437Z,62.51
2022-09-04T08:56:54.136Z,60.23
2022-09-04T09:00:03.194Z,61.42
2022-09-04T09:03:04.586Z,63.00
2022-09-04T09:06:02.093Z,59.02
2022-09-04T09:09:11.439Z,60.98
2022-09-04T09:12:19.094Z,59.55
2022-09-04T09:15:15.285Z,54.93
2022-09-04T09:18:01.158Z,56.17
2022-09-04T09:20:30.647Z,53.65
2022-09-04T09:23:20.733Z,52.34
2022-09-04T09:25:53.984Z,51.82
2022-09-04T09:29:06.802Z,53.75
2022-09-04T09:32:03.848Z,50.28
2022-09-04T09:35:10.581Z,54.42
2022-09-04T09:38:14.616Z,50.79
2022-09-04T09:41:10.074Z,50.09
2022-09-04T09:44:06.879Z,50.04
2022-09-04T09:47:12.918Z,48.59
2022-09-04T09:50:07.821Z,52.43
2022-09-04T09:53:28.792Z,56.69
2022-09-04T09:56:38.429Z,52.82
2022-09-04T09:59:53.809Z,56.66
2022-09-04T10:02:46.953Z,55.38
2022-09-04T10:05:37.523Z,55.76
2022-09-04T10:08:35.646Z,57.36
2022-09-04T10:11:44.290Z,52.35
2022-09-04T10:14:47.877Z,54.04
2022-09-04T10:17:55.813Z,51.08
2022-09-04T10:20:46.179Z,48.79
2022-09-04T10:23:52.748Z,48.73
2022-09-04T10:26:50.231Z,50.54
2022-09-04T10:29:35.690Z,50.88
2022-09-04T10:32:21.541Z,49.64
2022-09-04T10:35:10.875Z,49.15
2022-09-04T10:38:11.912Z,48.16
2022-09-04T10:41:05.977Z,47.51
2022-09-04T10:43:56.413Z,47.08
2022-09-04T10:46:30.665Z,45.71
2022-09-04T10:49:15.513Z,46.80
2022-09-04T10:52:08.492Z,45.83
2022-09-04T10:55:07.988Z,46.20
2022-09-04T10:57:50.073Z,44.21
2022-09-04T11:00:20.518Z,43.80
2022-09-04T11:03:15.598Z,44.52
2022-09-04T11:06:28.263Z,43.25
2022-09-04T11:09:18.360Z,43.10
2022-09-04T11:12:17.308Z,41.64
2022-09-04T11:15:27.642Z,43.23
2022-09-04T11:18:37.643Z,43.53
2022-09-04T11:21:47.998Z,42.75
2022-09-04T11:24:44.194Z,42.45
2022-09-04T11:27:52.540Z,40.45
2022-09-04T11:30:23.762Z,40.26
2022-09-04T11:33:36.815Z,41.33
2022-09-04T11:36:46.301Z,43.06
2022-09-04T11:40:06.372Z,43.92
2022-09-04T11:42:50.175Z,44.55
2022-09-04T11:45:48.082Z,43.57
2022-09-04T11:48:43.120Z,40.83
2022-09-04T11:51:40.505Z,40.32
2022-09-04T11:54:38.434Z,40.81
2022-09-04T11:57:17.918Z,38.95
2022-09-04T12:00:06.846Z,38.24
2022-09-04T12:03:09.470Z,39.72
2022-09-04T12:05:50.746Z,40.68
2022-09-04T12:08:51.143Z,40.74
2022-09-04T12:11:50.938Z,39.77
2022-09-04T12:14:35.474Z,38.86
2022-09-04T12:17:27.385Z,41.31
2022-09-04T12:20:26.682Z,41.34
2022-09-04T12:23:19.195Z,40.57
2022-09-04T12:26:19.137Z,40.45
2022-09-04T12:29:22.504Z,40.99
2022-09-04T12:32:35.523Z,40.86
2022-09-04T12:35:31.220Z,39.21
2022-09-04T12:38:18.252Z,38.87
2022-09-04T12:40:55.595Z,39.00
2022-09-04T12:43:42.849Z,37.60
2022-09-04T12:46:29.471Z,37.94
2022-09-04T12:49:17.214Z,37.93
2022-09-04T12:51:52.709Z,39.13
2022-09-04T12:54:33.242Z,37.41
2022-09-04T12:57:17.434Z,37.95
2022-09-04T13:00:01.247Z,39.14
2022-09-04T13:02:40.396Z,38.83
2022-09-04T13:05:29.597Z,38.42
2022-09-04T13:08:05.041Z,37.94
2022-09-04T13:10:45.081Z,39.61
2022-09-04T13:13:21.592Z,38.43
2022-09-04T13:16:00.517Z,38.83
2022-09-04T13:18:43.301Z,38.18
2022-09-04T13:21:26.354Z,38.51
2022-09-04T13:24:10.172Z,38.22
2022-09-04T13:26:52.322Z,37.04
2022-09-04T13:29:33.216Z,37.48
2022-09-04T13:32:33.690Z,38.02
2022-09-04T13:35:17.490Z,38.41
2022-09-04T13:38:03.231Z,38.50
2022-09-04T13:40:48.116Z,37.54
2022-09-04T13:43:50.459Z,37.21
2022-09-04T13:46:25.326Z,37.38
2022-09-04T13:48:59.775Z,38.15
2022-09-04T13:51:32.968Z,38.30
2022-09-04T13:54:09.825Z,38.88
2022-09-04T13:56:43.620Z,40.30
2022-09-04T13:59:20.274Z,38.58
2022-09-04T14:01:52.892Z,39.37
2022-09-04T14:04:26.445Z,38.95
2022-09-04T14:07:06.999Z,39.42
2022-09-04T14:09:42.423Z,38.95
2022-09-04T14:12:38.654Z,39.49
2022-09-04T14:15:34.386Z,39.00
2022-09-04T14:18:16.704Z,38.89
2022-09-04T14:21:01.326Z,38.66
2022-09-04T14:23:45.858Z,37.51
2022-09-04T14:26:24.521Z,38.46
2022-09-04T14:28:59.401Z,38.60
2022-09-04T14:31:35.246Z,40.12
2022-09-04T14:34:19.094Z,40.30
2022-09-04T14:36:59.787Z,39.76
2022-09-04T14:39:33.467Z,38.36
2022-09-04T14:42:30.029Z,39.62
2022-09-04T14:45:13.489Z,40.58
2022-09-04T14:47:47.785Z,39.36
2022-09-04T14:50:19.147Z,39.77
2022-09-04T14:52:51.860Z,39.84
2022-09-04T14:55:27.492Z,41.04
2022-09-04T14:58:02.666Z,40.65
2022-09-04T15:00:36.358Z,41.83
2022-09-04T15:03:15.636Z,42.08
2022-09-04T15:05:48.040Z,43.81
2022-09-04T15:08:28.885Z,41.77
2022-09-04T15:11:00.687Z,41.87
2022-09-04T15:13:46.430Z,40.80
2022-09-04T15:16:22.124Z,41.99
2022-09-04T15:18:59.007Z,40.94
2022-09-04T15:21:37.542Z,40.38
2022-09-04T15:24:16.165Z,41.52
2022-09-04T15:26:47.722Z,42.14
2022-09-04T15:29:22.848Z,41.78
2022-09-04T15:32:00.753Z,40.49
2022-09-04T15:34:29.433Z,40.82
2022-09-04T15:37:10.636Z,41.06
2022-09-04T15:39:50.433Z,39.98
2022-09-04T15:42:35.987Z,42.82
2022-09-04T15:45:17.007Z,42.67
2022-09-04T15:48:04.389Z,41.44
2022-09-04T15:50:36.283Z,40.67
2022-09-04T15:53:16.950Z,40.13
2022-09-04T15:55:46.939Z,40.29
2022-09-04T15:58:19.824Z,40.45
2022-09-04T16:01:14.675Z,39.98
2022-09-04T16:04:00.287Z,40.18
2022-09-04T16:06:33.539Z,40.04
2022-09-04T16:09:06.415Z,41.08
2022-09-04T16:11:41.540Z,40.42
2022-09-04T16:14:18.614Z,40.58
2022-09-04T16:16:53.471Z,40.36
2022-09-04T16:19:28.546Z,39.83
2022-09-04T16:22:09.222Z,40.39
2022-09-04T16:24:47.212Z,41.25
2022-09-04T16:27:19.845Z,41.80
2022-09-04T16:29:52.154Z,41.95
2022-09-04T16:32:23.935Z,42.33
2022-09-04T16:34:58.536Z,43.27
2022-09-04T16:37:32.363Z,43.77
2022-09-04T16:40:24.283Z,44.24
2022-09-04T16:43:00.011Z,44.58
2022-09-04T16:45:34.594Z,43.25
2022-09-04T16:48:34.754Z,43.26
2022-09-04T16:51:40.165Z,43.49
2022-09-04T16:54:05.669Z,43.78
2022-09-04T16:56:40.421Z,44.24
2022-09-04T16:59:23.937Z,44.84
2022-09-04T17:02:00.384Z,43.35
2022-09-04T17:04:40.005Z,43.66
2022-09-04T17:07:21.427Z,44.61
2022-09-04T17:10:05.551Z,45.50
2022-09-04T17:12:47.410Z,45.79
2022-09-04T17:15:33.094Z,46.32
2022-09-04T17:18:07.580Z,46.56
2022-09-04T17:22:08.510Z,45.15
2022-09-04T17:28:56.856Z,46.47
2022-09-04T17:29:09.740Z,46.26
2022-09-04T17:29:38.314Z,47.12
2022-09-04T17:36:32.827Z,47.54
2022-09-04T17:40:36.664Z,48.71
2022-09-04T17:40:40.958Z,48.33
2022-09-04T17:41:38.337Z,48.69
2022-09-04T17:44:27.129Z,49.28
2022-09-04T17:47:07.005Z,49.86
2022-09-04T17:49:35.657Z,50.17
2022-09-04T17:52:08.682Z,50.31
2022-09-04T17:54:42.435Z,50.02
2022-09-04T17:57:26.285Z,49.93
2022-09-04T18:00:02.454Z,51.10
2022-09-04T18:02:42.127Z,51.88
2022-09-04T18:05:16.898Z,51.36
2022-09-04T18:08:09.051Z,52.79
2022-09-04T18:10:54.782Z,52.99
2022-09-04T18:13:37.919Z,53.61
2022-09-04T18:16:16.183Z,53.96
2022-09-04T18:18:48.022Z,53.30
2022-09-04T18:21:22.960Z,53.09
2022-09-04T18:24:02.770Z,53.40
2022-09-04T18:26:41.527Z,53.87
2022-09-04T18:32:03.241Z,54.61
2022-09-04T18:37:09.521Z,55.07
2022-09-04T18:37:16.262Z,55.13
2022-09-04T18:38:36.422Z,55.15
2022-09-04T18:46:33.295Z,55.39
2022-09-04T18:50:20.883Z,55.50
2022-09-04T18:50:34.959Z,55.97
2022-09-04T18:50:44.273Z,55.67
2022-09-04T18:53:00.878Z,56.22
2022-09-04T18:55:32.980Z,56.21
2022-09-04T18:58:52.210Z,56.39
2022-09-04T19:01:28.103Z,57.09
2022-09-04T19:03:58.501Z,57.39
2022-09-04T19:06:39.158Z,57.53
2022-09-04T19:09:13.340Z,57.65
2022-09-04T19:11:46.927Z,58.76
2022-09-04T19:14:18.941Z,59.35
2022-09-04T19:16:55.657Z,58.81
2022-09-04T19:19:27.837Z,58.74
2022-09-04T19:22:09.557Z,59.78
2022-09-04T19:24:46.872Z,59.46
2022-09-04T19:27:28.270Z,61.24
2022-09-04T19:30:18.924Z,61.76
2022-09-04T19:33:06.074Z,60.50
2022-09-04T19:35:38.482Z,60.21
2022-09-04T19:42:35.783Z,61.16
2022-09-04T19:46:02.354Z,61.35
2022-09-04T19:46:06.805Z,61.58
2022-09-04T19:47:04.216Z,60.90
2022-09-04T19:53:20.166Z,61.56
2022-09-04T19:53:31.295Z,62.29
2022-09-04T19:55:39.884Z,62.32
2022-09-04T19:58:10.986Z,62.63
2022-09-04T20:00:48.928Z,64.38
2022-09-04T20:03:29.639Z,63.65
2022-09-04T20:06:21.381Z,64.90
2022-09-04T20:08:55.818Z,64.05
2022-09-04T20:11:35.858Z,63.43
2022-09-04T20:14:14.986Z,63.97
2022-09-04T20:16:54.869Z,63.20
2022-09-04T20:19:28.874Z,62.57
2022-09-04T20:22:02.433Z,64.10
2022-09-04T20:24:39.790Z,64.67
2022-09-04T20:27:15.941Z,69.12
2022-09-04T20:29:52.439Z,71.87
2022-09-04T20:32:26.688Z,68.82
2022-09-04T20:35:13.201Z,68.59
2022-09-04T20:37:53.381Z,70.00
2022-09-04T20:40:32.925Z,68.52
2022-09-04T20:43:18.179Z,68.40
2022-09-04T20:48:22.562Z,68.47
2022-09-04T20:53:00.035Z,70.33
2022-09-04T20:53:06.362Z,72.23
2022-09-04T20:54:51.750Z,76.11
2022-09-04T21:03:09.941Z,73.55
2022-09-04T21:03:12.414Z,73.86
2022-09-04T21:03:27.890Z,70.28
2022-09-04T21:06:25.953Z,69.18
2022-09-04T21:09:03.307Z,69.57
2022-09-04T21:11:40.653Z,71.14
2022-09-04T21:14:17.582Z,73.65
2022-09-04T21:17:33.762Z,75.35
2022-09-04T21:20:17.833Z,74.64
2022-09-04T21:23:09.502Z,76.09
2022-09-04T21:25:51.597Z,78.92
2022-09-04T21:28:36.847Z,77.19
2022-09-04T21:31:15.998Z,73.46
2022-09-04T21:33:59.211Z,74.44
2022-09-04T21:36:39.279Z,74.82
2022-09-04T21:39:34.092Z,72.50
2022-09-04T21:42:31.363Z,72.49
2022-09-04T21:45:19.629Z,73.18
2022-09-04T21:48:18.250Z,73.51
2022-09-04T21:50:58.768Z,72.29
2022-09-04T21:53:52.575Z,72.70
2022-09-04T22:01:16.794Z,72.78
2022-09-04T22:02:36.511Z,73.07
2022-09-04T22:03:20.026Z,73.52
2022-09-04T22:05:56.350Z,73.88
2022-09-04T22:11:39.844Z,73.74
2022-09-04T22:13:37.850Z,74.40
2022-09-04T22:14:41.529Z,73.06
2022-09-04T22:17:31.618Z,73.19
2022-09-04T22:20:55.002Z,72.50
2022-09-04T22:24:01.226Z,75.86
2022-09-04T22:26:49.174Z,73.46
2022-09-04T22:29:37.638Z,72.99
2022-09-04T22:32:49.803Z,72.15
2022-09-04T22:35:53.935Z,74.45
2022-09-04T22:38:45.965Z,73.16
2022-09-04T22:41:36.432Z,73.92
2022-09-04T22:44:21.351Z,74.05
2022-09-04T22:47:22.178Z,74.69
2022-09-04T22:50:06.919Z,74.25
2022-09-04T22:52:46.461Z,78.96
2022-09-04T22:55:40.470Z,79.31
2022-09-04T22:58:48.271Z,78.37
2022-09-04T23:02:00.136Z,77.91
2022-09-04T23:04:54.945Z,79.30
2022-09-04T23:13:43.686Z,76.94
2022-09-04T23:13:56.457Z,77.39
2022-09-04T23:14:12.213Z,77.87
2022-09-04T23:17:03.259Z,77.43
2022-09-04T23:24:15.189Z,79.86
2022-09-04T23:26:44.301Z,81.55
2022-09-04T23:26:53.590Z,79.45
2022-09-04T23:29:24.096Z,76.76
2022-09-04T23:32:10.158Z,75.64
2022-09-04T23:35:13.971Z,75.85
2022-09-04T23:38:07.062Z,75.82
2022-09-04T23:40:41.989Z,75.70
2022-09-04T23:43:42.554Z,75.90
2022-09-04T23:46:25.588Z,75.51
2022-09-04T23:49:25.647Z,75.08
2022-09-04T23:52:04.828Z,80.01
2022-09-04T23:55:23.326Z,76.88
2022-09-04T23:58:00.147Z,79.72
